Latest Weather Observations for Nuriootpa

IDS60801

Issued at 9:01 am CST Thursday 28 May 2015 (issued every 30 minutes, with the page automatically refreshed every 10 minutes)

About weather observations | Map of weather stations | Latest weather observations for SA | Other Formats
Station Details ID: 023373 Name: NURIOOTPA VITICULTURAL Lat: -34.48 Lon: 139.01 Height: 275.0 m
Data from the previous 72 hours. | See also: Recent months at Nuriootpa
Date/Time
CST
Temp
°C
App
Temp
°C
Dew
Point
Rel
Hum
%
Delta-T
°C
Wind Press
QNH
hPa
Press
MSL
hPa
Rain
since 9 am
mm
Dir
 
Spd
km/h
Gust
km/h
Spd
kts
Gust
kts
28/09:00am 11.3 10.4 9.3 87 1.0 ENE 4 7 2 4 1019.8 1019.8 0.0
28/08:30am 9.2 7.4 7.8 91 0.7 NE 7 9 4 5 1019.7 1019.7 0.0
28/08:00am 7.2 5.1 6.8 97 0.2 NE 7 9 4 5 1019.6 1019.6 0.0
28/07:30am 5.7 3.5 5.2 97 0.2 ENE 6 9 3 5 1019.4 1019.4 0.0
28/07:00am 5.5 3.3 5.3 99 0.1 NE 6 9 3 5 1019.4 1019.4 0.0
28/06:30am 4.7 2.7 4.2 97 0.2 ENE 4 6 2 3 1019.3 1019.3 0.0
28/06:00am 4.7 2.3 4.5 99 0.1 E 6 7 3 4 1018.6 1018.6 0.0
28/05:30am 5.1 2.8 4.6 97 0.2 ENE 6 7 3 4 1018.4 1018.3 0.0
28/05:00am 5.3 3.0 4.6 95 0.3 E 6 7 3 4 1018.3 1018.2 0.0
28/04:30am 5.3 3.0 4.8 97 0.2 ENE 6 7 3 4 1018.4 1018.3 0.0
28/04:00am 5.0 2.6 4.5 97 0.2 E 6 7 3 4 1018.2 1018.1 0.0
28/03:30am 5.3 3.1 5.1 99 0.1 ENE 6 7 3 4 1018.5 1018.4 0.0
28/03:00am 5.3 2.4 4.8 97 0.2 NE 9 11 5 6 1018.3 1018.2 0.0
28/02:30am 5.5 3.0 5.0 97 0.2 ENE 7 9 4 5 1018.3 1018.2 0.0
28/02:00am 5.6 3.2 5.4 99 0.1 NE 7 9 4 5 1018.9 1018.9 0.0
28/01:30am 5.4 3.5 4.9 97 0.2 NE 4 6 2 3 1018.9 1018.9 0.0
28/01:00am 6.0 3.7 5.6 97 0.2 NE 7 9 4 5 1018.7 1018.7 0.0
28/12:30am 5.9 3.6 5.5 97 0.2 NE 7 7 4 4 1019.0 1019.0 0.0
28/12:00am 6.0 3.9 5.8 99 0.1 NE 6 7 3 4 1019.2 1019.2 0.0
 
Date/Time
CST
Temp
°C
App
Temp
°C
Dew
Point
Rel
Hum
%
Delta-T
°C
Wind Press
QNH
hPa
Press
MSL
hPa
Rain
since 9 am
mm
Dir
 
Spd
km/h
Gust
km/h
Spd
kts
Gust
kts
27/11:30pm 6.3 4.2 5.9 97 0.2 NE 6 7 3 4 1019.6 1019.6 0.0
27/11:00pm 7.2 5.1 6.6 96 0.3 NE 7 9 4 5 1019.6 1019.6 0.0
27/10:30pm 7.3 4.8 6.7 96 0.3 NE 9 11 5 6 1019.7 1019.7 0.0
27/10:00pm 7.4 5.3 6.5 94 0.4 ENE 7 9 4 5 1019.9 1019.9 0.0
27/09:30pm 7.9 6.5 7.3 96 0.3 NE 4 7 2 4 1020.0 1020.0 0.0
27/09:00pm 7.9 7.3 7.3 96 0.3 CALM 0 0 0 0 1020.0 1020.0 0.0
27/08:30pm 8.4 7.8 7.6 95 0.4 CALM 0 0 0 0 1019.8 1019.8 0.0
27/08:00pm 9.5 9.0 7.9 90 0.8 CALM 0 0 0 0 1019.8 1019.8 0.0
27/07:30pm 10.0 8.5 8.4 90 0.8 ESE 6 9 3 5 1019.7 1019.7 0.0
27/07:00pm 10.8 10.6 9.0 89 0.9 CALM 0 0 0 0 1019.6 1019.6 0.0
27/06:30pm 11.6 11.4 9.0 84 1.3 CALM 0 0 0 0 1019.7 1019.7 0.0
27/06:00pm 13.3 11.8 9.2 76 2.1 SW 7 7 4 4 1019.6 1019.6 0.0
27/05:30pm 14.7 12.8 9.1 69 2.9 SW 9 11 5 6 1019.4 1019.4 0.0
27/05:00pm 16.1 14.6 9.2 63 3.6 SW 7 11 4 6 1019.3 1019.3 0.0
27/04:30pm 17.2 15.3 9.0 58 4.3 WSW 9 13 5 7 1019.3 1019.3 0.0
27/04:00pm 17.5 15.0 9.6 60 4.2 SW 13 19 7 10 1019.3 1019.3 0.0
27/03:30pm 17.9 15.3 9.4 57 4.5 WSW 13 20 7 11 1019.4 1019.4 0.0
27/03:00pm 18.4 15.9 9.8 57 4.6 W 13 19 7 10 1019.3 1019.3 0.0
27/02:30pm 18.0 15.4 9.3 56 4.6 W 13 20 7 11 1019.5 1019.5 0.0
27/02:00pm 18.4 14.8 8.2 51 5.3 WSW 17 24 9 13 1019.5 1019.5 0.0
27/01:30pm 18.0 14.0 8.4 53 5.0 W 19 24 10 13 1019.5 1019.5 0.0
27/01:00pm 18.4 15.3 8.7 53 5.1 W 15 22 8 12 1019.8 1019.8 0.0
27/12:30pm 18.3 15.8 9.7 57 4.6 WSW 13 20 7 11 1020.1 1020.1 0.0
27/12:00pm 17.9 15.7 10.9 63 3.8 SW 13 19 7 10 1020.6 1020.6 0.0
27/11:30am 17.3 14.0 9.6 60 4.1 W 17 20 9 11 1021.0 1021.0 0.0
27/11:00am 16.9 14.0 9.5 61 3.9 WNW 15 20 8 11 1021.4 1021.4 0.0
27/10:30am 16.7 13.4 9.5 62 3.8 WNW 17 24 9 13 1021.4 1021.4 0.0
27/10:00am 16.1 12.7 9.2 63 3.6 WNW 17 22 9 12 1021.3 1021.3 0.0
27/09:30am 15.2 11.8 9.2 67 3.1 WNW 17 28 9 15 1021.1 1021.1 0.0
27/09:00am 14.2 11.2 9.4 73 2.5 WNW 15 19 8 10 1021.2 1021.2 0.4
27/08:30am 12.0 10.6 9.5 85 1.3 NW 7 9 4 5 1021.5 1021.5 0.4
27/08:00am 11.2 11.1 9.6 90 0.8 CALM 0 6 0 3 1021.6 1021.7 0.4
27/07:30am 9.0 8.3 8.6 97 0.2 NE 2 6 1 3 1021.4 1021.4 0.4
27/07:00am 9.2 7.7 8.6 96 0.3 ENE 6 7 3 4 1021.1 1021.1 0.4
27/06:30am 8.9 7.4 8.5 97 0.2 ENE 6 7 3 4 1020.9 1020.9 0.4
27/06:00am 8.2 6.6 7.8 97 0.2 NE 6 7 3 4 1020.8 1020.8 0.4
27/05:30am 7.7 5.7 7.3 97 0.2 ENE 7 7 4 4 1020.5 1020.5 0.4
27/05:00am 8.4 6.6 8.0 97 0.2 NE 7 9 4 5 1020.6 1020.6 0.4
27/04:30am 8.5 8.0 7.9 96 0.3 CALM 0 7 0 4 1020.6 1020.6 0.4
27/04:00am 8.8 7.2 8.2 96 0.3 E 6 6 3 3 1020.4 1020.4 0.4
27/03:30am 9.6 8.3 9.2 97 0.2 ENE 6 7 3 4 1020.5 1020.5 0.4
27/03:00am 10.3 9.1 9.7 96 0.3 NE 6 7 3 4 1020.8 1020.8 0.4
27/02:30am 10.8 9.7 10.0 95 0.4 NE 6 7 3 4 1020.8 1020.8 0.4
27/02:00am 11.1 10.1 10.3 95 0.4 ENE 6 6 3 3 1021.2 1021.2 0.4
27/01:30am 11.4 10.4 10.4 94 0.5 ENE 6 9 3 5 1021.1 1021.1 0.4
27/01:00am 11.9 11.0 10.6 92 0.7 ENE 6 9 3 5 1021.4 1021.4 0.4
27/12:30am 11.9 10.4 10.6 92 0.7 ESE 9 11 5 6 1021.6 1021.7 0.4
27/12:00am 12.3 10.8 10.6 89 0.9 N 9 11 5 6 1021.6 1021.7 0.4
 
Date/Time
CST
Temp
°C
App
Temp
°C
Dew
Point
Rel
Hum
%
Delta-T
°C
Wind Press
QNH
hPa
Press
MSL
hPa
Rain
since 9 am
mm
Dir
 
Spd
km/h
Gust
km/h
Spd
kts
Gust
kts
26/11:30pm 12.9 11.8 10.6 86 1.2 WSW 7 9 4 5 1021.9 1021.9 0.4
26/11:00pm 13.3 11.0 10.4 82 1.5 WNW 13 17 7 9 1022.3 1022.3 0.4
26/10:30pm 12.5 11.6 10.8 89 0.9 SSW 6 7 3 4 1022.3 1022.3 0.0
26/10:00pm 12.6 12.8 10.5 87 1.1 CALM 0 0 0 0 1022.4 1022.4 0.0
26/09:30pm 12.9 13.1 10.4 85 1.3 CALM 0 6 0 3 1022.4 1022.4 0.0
26/09:00pm 12.9 13.0 10.2 84 1.4 CALM 0 0 0 0 1022.5 1022.5 0.0
26/08:30pm 13.2 13.4 10.5 84 1.4 CALM 0 0 0 0 1022.5 1022.5 0.0
26/08:00pm 13.3 13.4 10.2 81 1.6 CALM 0 0 0 0 1022.3 1022.3 0.0
26/07:30pm 13.9 12.8 10.1 78 2.0 NE 6 7 3 4 1022.2 1022.2 0.0
26/07:00pm 14.0 13.6 9.6 75 2.3 NNE 2 6 1 3 1022.3 1022.3 0.0
26/06:30pm 14.7 13.4 9.1 69 2.9 NNE 6 7 3 4 1022.2 1022.2 0.0
26/06:00pm 16.0 14.5 8.4 60 3.9 NW 6 7 3 4 1022.0 1022.0 0.0
26/05:30pm 16.7 15.2 8.4 58 4.3 NW 6 9 3 5 1021.9 1021.9 0.0
26/05:00pm 17.6 15.3 7.6 52 5.1 WNW 9 11 5 6 1021.7 1021.8 0.0
26/04:30pm 18.4 15.6 7.0 47 5.8 NW 11 15 6 8 1021.5 1021.5 0.0
26/04:00pm 19.2 16.0 6.8 44 6.3 NW 13 19 7 10 1021.4 1021.4 0.0
26/03:30pm 18.6 15.4 7.0 46 5.9 NW 13 17 7 9 1021.5 1021.5 0.0
26/03:00pm 19.1 16.4 7.2 46 6.1 NW 11 19 6 10 1021.7 1021.8 0.0
26/02:30pm 18.8 15.7 7.3 47 5.9 WNW 13 22 7 12 1021.9 1021.9 0.0
26/02:00pm 19.7 16.9 7.0 43 6.5 NW 11 20 6 11 1022.2 1022.2 0.0
26/01:30pm 19.2 16.0 6.8 44 6.3 NW 13 17 7 9 1022.7 1022.7 0.0
26/01:00pm 18.5 15.4 7.1 47 5.8 NW 13 20 7 11 1023.2 1023.2 0.0
26/12:30pm 18.8 15.8 7.7 48 5.7 NW 13 20 7 11 1023.6 1023.6 0.0
26/12:00pm 19.2 16.4 6.8 44 6.3 N 11 19 6 10 1023.9 1023.9 0.0
26/11:30am 18.2 14.1 6.4 46 5.9 NNW 17 26 9 14 1024.6 1024.6 0.0
26/11:00am 18.1 14.2 7.3 49 5.5 N 17 24 9 13 1025.0 1025.1 0.0
26/10:30am 17.8 14.8 7.9 52 5.1 N 13 20 7 11 1025.4 1025.5 0.0
26/10:00am 16.7 13.3 7.6 55 4.6 N 15 20 8 11 1025.5 1025.6 0.0
26/09:30am 15.8 14.3 9.0 64 3.5 N 7 11 4 6 1025.9 1025.9 0.0
26/09:00am 14.6 13.2 8.7 67 3.0 NE 6 9 3 5 1025.9 1025.9 0.2
26/08:30am 12.2 10.7 9.0 81 1.6 ENE 7 9 4 5 1026.0 1026.0 0.2
26/08:00am 10.8 9.1 8.2 84 1.3 ESE 7 9 4 5 1025.9 1025.9 0.2
26/07:30am 10.0 8.3 7.7 86 1.1 NE 6 7 3 4 1025.8 1025.8 0.2
26/07:00am 10.9 9.1 7.8 81 1.5 E 7 9 4 5 1025.7 1025.7 0.2
26/06:30am 10.9 9.2 8.3 84 1.3 ENE 7 9 4 5 1025.8 1025.8 0.2
26/06:00am 11.4 9.7 8.2 81 1.6 NE 7 9 4 5 1025.7 1025.7 0.2
26/05:30am 11.1 9.1 8.5 84 1.3 ENE 9 11 5 6 1025.5 1025.6 0.2
26/05:00am 11.2 9.7 8.6 84 1.3 ENE 6 9 3 5 1025.9 1025.9 0.2
26/04:30am 11.3 11.0 8.5 83 1.4 CALM 0 0 0 0 1026.1 1026.1 0.2
26/04:00am 11.4 9.3 8.4 82 1.5 ENE 9 9 5 5 1025.7 1025.7 0.2
26/03:30am 11.5 9.8 8.3 81 1.6 NNE 7 11 4 6 1025.8 1025.8 0.2
26/03:00am 11.9 10.5 8.7 81 1.6 ENE 6 9 3 5 1025.8 1025.8 0.2
26/02:30am 11.5 9.5 8.7 83 1.4 ENE 9 52 5 28 1026.4 1026.4 0.2
26/02:00am 11.7 10.1 8.7 82 1.5 NE 7 11 4 6 1026.5 1026.5 0.2
26/01:30am 11.6 9.9 8.4 81 1.6 NE 7 11 4 6 1026.7 1026.7 0.2
26/01:00am 12.1 10.4 8.3 77 1.9 NNE 7 11 4 6 1026.7 1026.7 0.2
26/12:30am 11.7 9.7 8.5 81 1.6 NE 9 11 5 6 1026.8 1026.8 0.2
26/12:00am 12.0 9.5 8.4 78 1.8 ENE 11 15 6 8 1027.0 1027.0 0.2
 
Date/Time
CST
Temp
°C
App
Temp
°C
Dew
Point
Rel
Hum
%
Delta-T
°C
Wind Press
QNH
hPa
Press
MSL
hPa
Rain
since 9 am
mm
Dir
 
Spd
km/h
Gust
km/h
Spd
kts
Gust
kts
25/11:30pm 11.6 10.9 8.6 82 1.5 NE 2 7 1 4 1027.7 1027.7 0.2
25/11:00pm 12.0 9.9 8.4 78 1.8 NE 9 9 5 5 1027.7 1027.7 0.2
25/10:30pm 11.7 10.0 8.5 81 1.6 N 7 9 4 5 1027.9 1028.0 0.2
25/10:00pm 11.8 10.1 8.4 80 1.7 NE 7 9 4 5 1027.7 1027.7 0.2
25/09:30pm 11.3 9.8 8.5 83 1.4 NE 6 7 3 4 1027.5 1027.5 0.2
25/09:00pm 11.8 10.1 8.2 78 1.8 NNE 7 9 4 5 1027.7 1027.7 0.2
25/08:30pm 11.2 9.7 8.6 84 1.3 NNE 6 7 3 4 1027.7 1027.7 0.2
25/08:00pm 11.9 10.4 8.5 80 1.7 ENE 6 9 3 5 1027.6 1027.6 0.2
25/07:30pm 12.1 10.0 8.3 77 1.9 NE 9 11 5 6 1027.5 1027.5 0.2
25/07:00pm 12.5 10.8 8.5 76 2.0 ENE 7 11 4 6 1027.6 1027.6 0.2
25/06:30pm 13.2 11.5 8.2 71 2.5 NE 7 11 4 6 1027.4 1027.4 0.2
25/06:00pm 13.7 11.5 7.9 68 2.9 ENE 9 11 5 6 1027.1 1027.1 0.2
25/05:30pm 14.5 12.6 7.7 63 3.4 ENE 7 9 4 5 1026.8 1026.8 0.2
25/05:00pm 15.4 13.5 7.4 59 4.0 ENE 7 11 4 6 1026.7 1026.7 0.2
25/04:30pm 16.1 13.7 6.8 54 4.6 E 9 13 5 7 1026.5 1026.5 0.2
25/04:00pm 16.6 14.2 6.8 52 4.9 E 9 15 5 8 1026.2 1026.2 0.2
25/03:30pm 17.4 14.4 5.8 46 5.7 ENE 11 17 6 9 1026.0 1026.0 0.2
25/03:00pm 17.7 15.2 6.5 48 5.6 NE 9 15 5 8 1026.0 1026.0 0.2
25/02:30pm 17.9 14.5 5.7 44 6.0 NE 13 19 7 10 1026.4 1026.4 0.2
25/02:00pm 17.2 14.2 5.8 47 5.6 NE 11 15 6 8 1026.5 1026.5 0.2
25/01:30pm 17.8 15.1 5.5 44 6.0 NNE 9 17 5 9 1026.6 1026.6 0.2
25/01:00pm 17.9 15.4 6.5 47 5.7 NE 9 15 5 8 1026.5 1026.5 0.2
25/12:30pm 17.6 15.0 6.1 47 5.7 NE 9 17 5 9 1026.7 1026.7 0.2
25/12:00pm 17.6 14.9 5.8 46 5.8 NNW 9 15 5 8 1027.4 1027.4 0.2
25/11:30am 17.1 13.7 6.1 48 5.4 N 13 20 7 11 1028.1 1028.2 0.0
25/11:00am 16.6 13.2 6.0 49 5.2 N 13 19 7 10 1028.8 1028.9 0.0
25/10:30am 16.2 12.2 6.5 52 4.8 NNE 17 24 9 13 1029.0 1029.1 0.0
25/10:00am 15.7 13.1 7.8 59 4.0 N 11 17 6 9 1029.3 1029.4 0.0
25/09:30am 14.7 12.0 7.5 62 3.6 NNE 11 13 6 7 1029.4 1029.5 0.0

Other Formats:

Comma delimited format used in spreadsheet applications
http://www.bom.gov.au/fwo/IDS60801/IDS60801.94681.axf

JavaScript Object Notation format (JSON) in row-major order
http://www.bom.gov.au/fwo/IDS60801/IDS60801.94681.json